Time;durP1;ratioP1;P1;durP2;ratioP2;P2;SDS_P1;SDS_P2;PMS_P1;PMS_P2;Temp;Humidity;BMP_temperature;BMP_pressure;BME280_temperature;BME280_humidity;BME280_pressure;Samples;Min_cycle;Max_cycle;Signal;HPM_P1;HPM_P2
2022/05/26 00:02:15;;;;;;;12.90;2.40;;;12.80;96.20;;;;;;5047844;28;20140;-72
2022/05/26 00:04:41;;;;;;;14.32;2.30;;;12.80;96.20;;;;;;5029498;28;20029;-71
2022/05/26 00:07:08;;;;;;;13.27;2.33;;;12.80;96.20;;;;;;5047853;28;20060;-75
2022/05/26 00:09:34;;;;;;;9.05;2.13;;;12.80;96.20;;;;;;5058023;28;20162;-75
2022/05/26 00:12:00;;;;;;;13.27;2.13;;;12.80;96.10;;;;;;5048057;28;20503;-70
2022/05/26 00:14:26;;;;;;;7.57;2.20;;;12.80;96.10;;;;;;5029843;28;20039;-71
2022/05/26 00:16:52;;;;;;;10.73;2.42;;;12.80;95.90;;;;;;5047532;28;20029;-72
2022/05/26 00:19:19;;;;;;;10.63;2.72;;;12.80;95.80;;;;;;5047747;28;20494;-71
2022/05/26 00:21:47;;;;;;;9.38;2.20;;;12.80;95.70;;;;;;5047492;28;20033;-71
2022/05/26 00:24:13;;;;;;;12.02;2.40;;;12.80;95.60;;;;;;5047542;28;20701;-74
2022/05/26 00:26:39;;;;;;;12.90;2.42;;;12.90;95.90;;;;;;5047834;28;20037;-74
2022/05/26 00:29:05;;;;;;;12.23;2.67;;;12.80;95.50;;;;;;5030604;28;20040;-71
2022/05/26 00:31:30;;;;;;;10.70;2.70;;;12.80;95.40;;;;;;5031378;28;20029;-70
2022/05/26 00:33:56;;;;;;;9.80;2.58;;;12.80;95.40;;;;;;5047750;28;20025;-73
2022/05/26 00:36:37;;;;;;;10.13;2.53;;;12.80;95.40;;;;;;5047513;28;20041;-72
2022/05/26 00:39:15;;;;;;;12.82;2.08;;;12.80;95.40;;;;;;5047590;28;20029;-73
2022/05/26 00:41:46;;;;;;;7.60;1.83;;;12.80;95.40;;;;;;5046419;28;20417;-74
2022/05/26 00:44:12;;;;;;;8.38;2.33;;;12.80;95.40;;;;;;5047072;28;20041;-70
2022/05/26 00:46:55;;;;;;;9.80;2.22;;;12.80;95.40;;;;;;5040551;28;20064;-72
2022/05/26 00:49:58;;;;;;;8.88;2.38;;;12.70;95.50;;;;;;5047743;28;20045;-72
2022/05/26 00:52:36;;;;;;;12.23;2.13;;;12.70;95.20;;;;;;5056243;28;20087;-72
2022/05/26 00:55:08;;;;;;;11.88;2.30;;;12.80;95.00;;;;;;5052324;28;20052;-70
2022/05/26 00:57:44;;;;;;;9.45;2.20;;;12.70;95.00;;;;;;5029787;28;20516;-70
2022/05/26 01:00:19;;;;;;;11.20;2.20;;;12.70;95.10;;;;;;5056792;28;20140;-69
2022/05/26 01:03:13;;;;;;;10.75;2.20;;;12.70;95.10;;;;;;5058897;28;20114;-69
2022/05/26 01:05:46;;;;;;;10.23;2.55;;;12.70;95.00;;;;;;5028456;28;20036;-74
2022/05/26 01:08:22;;;;;;;10.68;2.33;;;12.70;94.80;;;;;;5060425;28;20123;-71
2022/05/26 01:10:48;;;;;;;10.90;2.10;;;12.70;94.80;;;;;;5058487;28;20438;-70
2022/05/26 01:13:18;;;;;;;10.52;2.00;;;12.70;94.70;;;;;;5043589;28;20025;-72
2022/05/26 01:15:48;;;;;;;9.48;1.88;;;12.70;94.70;;;;;;5050944;28;20037;-72
2022/05/26 01:18:25;;;;;;;11.02;2.20;;;12.80;94.60;;;;;;5040283;28;20203;-71
2022/05/26 01:21:13;;;;;;;8.07;1.80;;;12.70;94.70;;;;;;5040557;28;20033;-72
2022/05/26 01:23:57;;;;;;;13.77;2.40;;;12.70;94.60;;;;;;5034153;28;20370;-73
2022/05/26 01:26:50;;;;;;;11.23;2.55;;;12.70;94.70;;;;;;5054512;28;20053;-70
2022/05/26 01:29:27;;;;;;;9.65;2.25;;;12.60;94.80;;;;;;5059619;28;20037;-72
2022/05/26 01:32:29;;;;;;;8.80;2.13;;;12.60;95.00;;;;;;5043247;28;20036;-70
2022/05/26 01:35:37;;;;;;;7.13;1.70;;;12.60;95.10;;;;;;5053957;28;20064;-70
2022/05/26 01:38:17;;;;;;;8.23;1.73;;;12.60;95.10;;;;;;5020336;28;20732;-73
2022/05/26 01:40:52;;;;;;;7.75;1.98;;;12.60;95.10;;;;;;5004490;28;20125;-72
2022/05/26 01:43:52;;;;;;;13.60;2.53;;;12.60;95.10;;;;;;5009715;28;20677;-71
2022/05/26 01:46:31;;;;;;;8.93;2.00;;;12.60;95.20;;;;;;5009937;28;20527;-73
2022/05/26 01:49:32;;;;;;;10.20;2.00;;;12.60;95.20;;;;;;5017951;28;20057;-70
2022/05/26 01:52:35;;;;;;;6.68;1.80;;;12.50;95.20;;;;;;5021800;28;20046;-71
2022/05/26 01:55:12;;;;;;;11.18;2.20;;;12.60;95.10;;;;;;4986744;28;20048;-76
2022/05/26 01:58:06;;;;;;;11.65;1.92;;;12.60;95.10;;;;;;5013847;28;20718;-72
2022/05/26 02:00:32;;;;;;;9.90;2.08;;;12.60;95.00;;;;;;4979730;28;20029;-70
2022/05/26 02:03:20;;;;;;;11.63;2.70;;;12.60;95.10;;;;;;5022109;28;20064;-72
2022/05/26 02:05:56;;;;;;;12.35;2.45;;;12.60;95.10;;;;;;5012752;28;20240;-69
2022/05/26 02:08:32;;;;;;;10.10;2.28;;;12.50;95.10;;;;;;5019464;28;20188;-71
2022/05/26 02:11:14;;;;;;;9.38;2.08;;;12.50;95.30;;;;;;5027348;28;20511;-70
2022/05/26 02:13:55;;;;;;;9.93;1.60;;;12.50;95.20;;;;;;5058014;28;20036;-73
2022/05/26 02:16:45;;;;;;;12.30;2.38;;;12.50;95.10;;;;;;5039888;28;20147;-73
2022/05/26 02:19:28;;;;;;;12.32;2.50;;;12.50;95.10;;;;;;5059985;28;20473;-74
2022/05/26 02:22:22;;;;;;;10.52;2.22;;;12.40;95.10;;;;;;5034570;28;20040;-73
2022/05/26 02:25:17;;;;;;;11.40;2.25;;;12.40;95.30;;;;;;5043890;28;20745;-71
2022/05/26 02:27:44;;;;;;;13.43;2.17;;;12.40;95.30;;;;;;5053186;28;20151;-72
2022/05/26 02:30:12;;;;;;;10.20;2.10;;;12.40;95.30;;;;;;5061293;28;20032;-72
2022/05/26 02:32:39;;;;;;;9.43;1.92;;;12.40;95.40;;;;;;5042689;28;20056;-74
2022/05/26 02:35:13;;;;;;;8.98;1.85;;;12.30;95.40;;;;;;5060482;28;20032;-71
2022/05/26 02:37:41;;;;;;;7.97;1.67;;;12.30;95.60;;;;;;5059913;28;20492;-72
2022/05/26 02:40:08;;;;;;;9.10;2.20;;;12.30;95.60;;;;;;5033459;28;20129;-72
2022/05/26 02:42:40;;;;;;;11.23;2.10;;;12.30;95.70;;;;;;5061944;28;20039;-70
2022/05/26 02:45:06;;;;;;;15.32;2.63;;;12.30;95.60;;;;;;5028734;28;20039;-72
2022/05/26 02:48:01;;;;;;;9.18;2.08;;;12.30;95.60;;;;;;5047178;28;20029;-73
2022/05/26 02:51:02;;;;;;;7.25;1.88;;;12.30;95.60;;;;;;5057488;28;20050;-73
2022/05/26 02:53:35;;;;;;;10.25;2.40;;;12.30;95.70;;;;;;5032798;28;20085;-73
2022/05/26 02:56:19;;;;;;;11.65;2.33;;;12.30;95.80;;;;;;5055267;28;20024;-72
2022/05/26 02:59:24;;;;;;;8.00;1.77;;;12.20;95.80;;;;;;5055222;28;20039;-71
2022/05/26 03:02:09;;;;;;;12.57;2.17;;;12.20;95.80;;;;;;4974504;28;20133;-75
2022/05/26 03:04:46;;;;;;;9.00;2.08;;;12.20;95.90;;;;;;4982547;28;20543;-73
2022/05/26 03:07:23;;;;;;;12.82;2.67;;;12.20;95.90;;;;;;4965466;28;20085;-71
2022/05/26 03:09:49;;;;;;;15.27;3.08;;;12.20;96.00;;;;;;4975799;28;20031;-71
2022/05/26 03:12:27;;;;;;;8.75;1.85;;;12.10;96.20;;;;;;4961013;28;20050;-77
2022/05/26 03:14:53;;;;;;;13.40;2.15;;;12.10;96.30;;;;;;4973642;28;20042;-72
2022/05/26 03:17:19;;;;;;;13.45;2.40;;;12.10;96.30;;;;;;4960339;28;20391;-72
2022/05/26 03:19:45;;;;;;;8.55;1.90;;;12.10;96.30;;;;;;4973723;28;20198;-78
2022/05/26 03:22:11;;;;;;;10.73;2.15;;;12.10;96.40;;;;;;4975389;28;20062;-71
2022/05/26 03:24:37;;;;;;;9.85;2.03;;;12.10;96.30;;;;;;4969989;28;20117;-73
2022/05/26 03:27:03;;;;;;;12.30;2.20;;;12.10;96.30;;;;;;4988351;28;20124;-74
2022/05/26 03:29:29;;;;;;;12.13;2.60;;;12.10;96.30;;;;;;4975738;28;20035;-70
2022/05/26 03:31:55;;;;;;;9.73;1.90;;;12.10;96.40;;;;;;4978498;28;20047;-73
2022/05/26 03:42:34;;;;;;;11.15;2.13;;;12.10;96.40;;;;;;5054461;28;20055;-74
2022/05/26 03:45:02;;;;;;;11.88;2.00;;;12.10;96.30;;;;;;5034561;28;20032;-72
2022/05/26 03:47:28;;;;;;;12.98;2.38;;;12.10;96.20;;;;;;5039939;28;20056;-73
2022/05/26 03:49:53;;;;;;;9.77;1.88;;;12.20;96.20;;;;;;5036080;28;20113;-71
2022/05/26 03:52:19;;;;;;;12.30;2.17;;;12.20;96.20;;;;;;5060367;28;20041;-73
2022/05/26 03:54:45;;;;;;;10.82;2.30;;;12.20;96.10;;;;;;5040051;28;20028;-76
2022/05/26 03:57:10;;;;;;;8.98;2.10;;;12.20;96.10;;;;;;5056680;28;20064;-71
2022/05/26 03:59:40;;;;;;;12.23;2.55;;;12.20;96.10;;;;;;5063508;28;20035;-72
2022/05/26 04:02:06;;;;;;;;;;;12.20;96.00;;;;;;5055697;28;20045;-70
2022/05/26 04:04:31;;;;;;;14.23;2.80;;;12.10;96.00;;;;;;5053993;28;19920;-70
2022/05/26 04:06:57;;;;;;;10.25;2.00;;;12.10;96.10;;;;;;5056125;28;20107;-73
2022/05/26 04:09:23;;;;;;;12.10;2.30;;;12.10;96.10;;;;;;5059978;28;20478;-73
2022/05/26 04:11:49;;;;;;;10.88;2.00;;;12.10;96.40;;;;;;5056077;28;20089;-74
2022/05/26 04:14:14;;;;;;;8.70;2.00;;;12.10;96.10;;;;;;5054930;28;20397;-71
2022/05/26 04:16:40;;;;;;;13.00;2.53;;;12.10;96.00;;;;;;5062142;28;20075;-72
2022/05/26 04:19:06;;;;;;;9.38;2.10;;;12.10;96.00;;;;;;5067937;28;20503;-72
2022/05/26 04:21:31;;;;;;;10.60;1.98;;;12.20;95.90;;;;;;5047524;28;20048;-72
2022/05/26 04:23:57;;;;;;;10.88;2.45;;;12.10;95.90;;;;;;5048036;28;20060;-75
2022/05/26 04:26:23;;;;;;;11.05;2.08;;;12.20;95.90;;;;;;5047682;28;20029;-70
2022/05/26 04:28:48;;;;;;;9.55;2.15;;;12.20;95.90;;;;;;5047393;28;20033;-72
2022/05/26 04:31:14;;;;;;;8.50;1.83;;;12.10;96.00;;;;;;5047531;28;20120;-72
2022/05/26 04:33:40;;;;;;;9.88;2.20;;;12.10;96.00;;;;;;5047907;28;20033;-72
2022/05/26 04:36:06;;;;;;;11.15;2.40;;;12.10;96.00;;;;;;5044875;28;20036;-71
2022/05/26 04:38:33;;;;;;;10.77;2.17;;;12.10;96.10;;;;;;5044932;28;20150;-71
2022/05/26 04:41:06;;;;;;;12.43;2.65;;;12.00;96.20;;;;;;5032166;28;20114;-71
2022/05/26 04:43:32;;;;;;;12.02;2.30;;;12.00;96.30;;;;;;5051638;28;20033;-73
2022/05/26 04:45:59;;;;;;;11.63;2.17;;;12.00;96.30;;;;;;5051370;28;20033;-72
2022/05/26 04:48:25;;;;;;;9.57;2.10;;;12.00;96.40;;;;;;5050504;28;20036;-74
2022/05/26 04:50:51;;;;;;;9.43;2.28;;;12.00;96.50;;;;;;5049661;28;20033;-74
2022/05/26 04:53:18;;;;;;;13.48;2.15;;;12.10;96.50;;;;;;5033424;28;20033;-71
2022/05/26 04:55:44;;;;;;;10.23;2.70;;;12.10;96.50;;;;;;5051188;28;20040;-74
2022/05/26 04:58:10;;;;;;;12.30;2.30;;;12.10;96.50;;;;;;5051750;28;20068;-70
2022/05/26 05:00:36;;;;;;;9.57;1.77;;;12.10;96.50;;;;;;5033374;28;20438;-73
2022/05/26 05:03:02;;;;;;;10.98;2.10;;;12.20;96.40;;;;;;5049841;28;20025;-71
2022/05/26 05:05:27;;;;;;;11.60;2.42;;;12.20;96.40;;;;;;5050419;28;20118;-72
2022/05/26 05:07:53;;;;;;;12.23;2.00;;;12.30;96.30;;;;;;5050791;28;20036;-72
2022/05/26 05:10:19;;;;;;;11.57;2.20;;;12.30;96.30;;;;;;5051050;28;20029;-74
2022/05/26 05:12:48;;;;;;;16.88;3.30;;;12.40;96.10;;;;;;5051006;28;20033;-69
2022/05/26 05:15:21;;;;;;;8.43;1.90;;;12.50;96.10;;;;;;5044324;28;20039;-76
2022/05/26 05:17:47;;;;;;;12.40;2.22;;;12.50;95.90;;;;;;5013125;28;20041;-71
2022/05/26 05:20:13;;;;;;;11.45;2.28;;;12.60;96.00;;;;;;5019413;28;20048;-71
2022/05/26 05:22:44;;;;;;;7.47;2.33;;;12.60;95.90;;;;;;5032635;28;20048;-72
2022/05/26 05:25:25;;;;;;;11.48;2.30;;;12.70;95.90;;;;;;5050128;28;20033;-73
2022/05/26 05:27:57;;;;;;;11.65;2.30;;;12.70;95.70;;;;;;5050817;28;20112;-73
2022/05/26 05:30:28;;;;;;;9.45;1.80;;;12.80;95.80;;;;;;5050905;28;20104;-71
2022/05/26 05:33:04;;;;;;;12.10;2.30;;;12.80;95.70;;;;;;5050775;28;20036;-73
2022/05/26 05:35:38;;;;;;;13.57;2.15;;;12.90;95.60;;;;;;5040304;28;20028;-73
2022/05/26 05:38:04;;;;;;;8.95;2.33;;;13.00;95.40;;;;;;5029221;28;20053;-73
2022/05/26 05:40:30;;;;;;;14.75;2.58;;;13.00;95.40;;;;;;5030671;28;20368;-71
2022/05/26 05:42:56;;;;;;;12.48;2.28;;;13.00;95.30;;;;;;5035213;28;20115;-73
2022/05/26 05:45:21;;;;;;;9.23;2.20;;;13.10;95.30;;;;;;5050415;28;20429;-70
2022/05/26 05:47:47;;;;;;;15.30;2.58;;;13.10;95.30;;;;;;5050249;28;20021;-74
2022/05/26 05:50:13;;;;;;;12.73;2.75;;;13.10;95.40;;;;;;5047914;28;20462;-72
2022/05/26 05:52:39;;;;;;;9.43;2.42;;;13.20;95.30;;;;;;5051183;28;20041;-72
2022/05/26 05:55:05;;;;;;;11.65;2.40;;;13.20;95.20;;;;;;5032461;28;20040;-72
2022/05/26 05:57:31;;;;;;;9.60;2.03;;;13.30;95.10;;;;;;5032013;28;20035;-72
2022/05/26 05:59:57;;;;;;;11.40;2.15;;;13.40;95.00;;;;;;5041166;28;20060;-75
2022/05/26 06:02:23;;;;;;;8.40;1.90;;;13.50;94.90;;;;;;5030352;28;20056;-71
2022/05/26 06:04:49;;;;;;;13.45;2.80;;;13.50;94.70;;;;;;5029972;28;20033;-73
2022/05/26 06:07:17;;;;;;;11.40;2.35;;;13.60;94.70;;;;;;5040259;28;20021;-73
2022/05/26 06:09:44;;;;;;;11.73;2.00;;;13.60;94.60;;;;;;5055889;28;20037;-72
2022/05/26 06:12:12;;;;;;;9.65;2.45;;;13.80;94.70;;;;;;5033850;28;20060;-72
2022/05/26 06:14:39;;;;;;;9.95;2.00;;;13.90;94.40;;;;;;5050202;28;20040;-73
2022/05/26 06:17:07;;;;;;;9.85;2.15;;;14.00;94.10;;;;;;5030404;28;20056;-71
2022/05/26 06:19:33;;;;;;;11.82;2.60;;;14.00;93.80;;;;;;5049740;28;20040;-70
2022/05/26 06:22:04;;;;;;;11.73;1.90;;;14.10;93.90;;;;;;5032911;28;20029;-71
2022/05/26 06:24:30;;;;;;;11.02;2.20;;;14.10;93.80;;;;;;5049695;28;20025;-72
2022/05/26 06:26:55;;;;;;;12.55;2.30;;;14.20;93.90;;;;;;5048338;28;20727;-73
2022/05/26 06:37:37;;;;;;;9.93;1.80;;;14.40;92.70;;;;;;5045896;28;20080;-71
2022/05/26 06:40:03;;;;;;;8.25;2.00;;;14.40;92.90;;;;;;5038794;28;20065;-72
2022/05/26 06:42:29;;;;;;;6.90;2.03;;;14.40;92.80;;;;;;5031596;28;20029;-73
2022/05/26 06:44:55;;;;;;;12.13;2.35;;;14.40;92.80;;;;;;5042745;28;20049;-71
2022/05/26 06:47:22;;;;;;;9.85;2.78;;;14.50;92.70;;;;;;5048942;28;20040;-72
2022/05/26 06:49:50;;;;;;;14.13;2.33;;;14.50;92.60;;;;;;5030841;28;20032;-71
2022/05/26 06:52:17;;;;;;;12.60;2.80;;;14.50;92.40;;;;;;5047050;28;20044;-69
2022/05/26 06:54:45;;;;;;;9.27;1.95;;;14.50;92.80;;;;;;5048938;28;20075;-69
2022/05/26 06:57:12;;;;;;;7.95;2.22;;;14.50;93.20;;;;;;5049226;28;20136;-73
2022/05/26 06:59:39;;;;;;;11.63;2.20;;;14.60;93.10;;;;;;5056955;28;20073;-72
2022/05/26 07:02:08;;;;;;;9.77;2.50;;;14.60;93.30;;;;;;5055039;28;20028;-72
2022/05/26 07:04:34;;;;;;;8.98;2.22;;;14.60;93.50;;;;;;5027606;28;20037;-74
2022/05/26 07:07:01;;;;;;;10.88;1.88;;;14.70;92.90;;;;;;5022701;28;20087;-69
2022/05/26 07:09:27;;;;;;;9.57;2.03;;;14.60;92.70;;;;;;5042941;28;20048;-72
2022/05/26 07:11:53;;;;;;;7.68;1.90;;;14.60;92.20;;;;;;5045046;28;20090;-71
2022/05/26 07:14:19;;;;;;;9.18;2.42;;;14.60;92.20;;;;;;5047465;28;20044;-71
2022/05/26 07:16:45;;;;;;;9.60;2.25;;;14.50;91.20;;;;;;5047015;28;20037;-73
2022/05/26 07:19:16;;;;;;;8.73;2.35;;;14.50;90.60;;;;;;5030213;28;20088;-74
2022/05/26 07:21:51;;;;;;;8.73;2.03;;;14.50;90.90;;;;;;5030615;28;20044;-72
2022/05/26 07:24:23;;;;;;;7.85;2.13;;;14.50;91.40;;;;;;5046248;28;20471;-72
2022/05/26 07:26:49;;;;;;;8.77;2.53;;;14.50;91.50;;;;;;5045897;28;20491;-69
2022/05/26 07:29:17;;;;;;;6.28;1.88;;;14.60;91.30;;;;;;5046518;28;20048;-71
2022/05/26 07:31:43;;;;;;;9.02;2.25;;;14.60;91.40;;;;;;5036457;28;20036;-68
2022/05/26 07:34:09;;;;;;;9.65;2.47;;;14.60;91.90;;;;;;5029938;28;20578;-71
2022/05/26 07:42:09;;;;;;;8.85;1.92;;;14.70;91.80;;;;;;5048734;28;20111;-71
2022/05/26 07:44:38;;;;;;;8.55;2.35;;;14.70;91.60;;;;;;5048711;28;20477;-69
2022/05/26 07:47:06;;;;;;;8.27;2.50;;;14.80;91.90;;;;;;5030431;28;20031;-75
2022/05/26 07:49:37;;;;;;;8.98;2.47;;;14.80;91.50;;;;;;5048338;28;20327;-70
2022/05/26 07:52:03;;;;;;;9.98;2.75;;;14.90;91.70;;;;;;5044622;28;20029;-69
2022/05/26 07:54:29;;;;;;;9.05;2.13;;;14.90;91.10;;;;;;5045658;28;20043;-71
2022/05/26 07:56:55;;;;;;;9.27;2.15;;;14.90;91.10;;;;;;5047923;28;20044;-70
2022/05/26 07:59:21;;;;;;;9.27;2.10;;;15.00;90.90;;;;;;5030101;28;20041;-72
2022/05/26 08:01:48;;;;;;;9.60;2.60;;;15.00;90.80;;;;;;5048602;28;20044;-70
2022/05/26 08:04:17;;;;;;;9.27;2.92;;;15.00;90.70;;;;;;5011054;28;20537;-76
2022/05/26 08:06:47;;;;;;;7.00;3.10;;;15.10;89.90;;;;;;5039263;28;20542;-71
2022/05/26 08:09:15;;;;;;;9.85;2.92;;;15.20;89.60;;;;;;5048281;28;20044;-71
2022/05/26 08:11:40;;;;;;;9.52;3.08;;;15.30;90.10;;;;;;5029871;28;20029;-72
2022/05/26 08:14:06;;;;;;;8.40;2.85;;;15.40;89.40;;;;;;5051294;28;20041;-75
2022/05/26 08:16:32;;;;;;;7.65;2.92;;;15.40;88.90;;;;;;5048751;28;20033;-73
2022/05/26 08:18:57;;;;;;;8.15;2.97;;;15.50;87.30;;;;;;5048274;28;20517;-71
2022/05/26 08:21:23;;;;;;;8.50;2.72;;;15.60;87.80;;;;;;5048154;28;20032;-71
2022/05/26 08:23:49;;;;;;;8.48;2.47;;;15.70;87.20;;;;;;5047926;28;20114;-71
2022/05/26 08:26:15;;;;;;;7.75;2.22;;;15.80;86.90;;;;;;5047047;28;20025;-73
2022/05/26 08:28:42;;;;;;;12.50;2.63;;;15.80;86.60;;;;;;5047653;28;20509;-70
2022/05/26 08:31:10;;;;;;;7.18;2.15;;;15.90;86.40;;;;;;5047623;28;20029;-71
2022/05/26 08:33:37;;;;;;;8.68;1.95;;;16.00;86.30;;;;;;5047392;28;20045;-73
2022/05/26 08:36:12;;;;;;;9.15;2.10;;;16.10;86.90;;;;;;5046673;28;20051;-69
2022/05/26 08:38:38;;;;;;;7.05;1.80;;;16.10;86.20;;;;;;5047320;28;20543;-71
2022/05/26 08:41:05;;;;;;;8.15;1.52;;;16.10;86.10;;;;;;5047015;28;20497;-72
2022/05/26 08:43:56;;;;;;;7.00;1.80;;;16.00;85.50;;;;;;5039171;28;20561;-73
2022/05/26 08:46:24;;;;;;;7.10;2.00;;;16.00;84.40;;;;;;5035182;28;20032;-73
2022/05/26 08:49:08;;;;;;;8.20;1.88;;;16.10;86.20;;;;;;5027049;28;20040;-71
2022/05/26 08:51:54;;;;;;;9.13;1.88;;;16.10;86.40;;;;;;5021487;28;20040;-72
2022/05/26 08:54:35;;;;;;;6.45;1.90;;;16.10;86.30;;;;;;5037432;28;20025;-72
2022/05/26 08:57:02;;;;;;;8.45;2.20;;;16.20;86.10;;;;;;5043544;28;20059;-73
2022/05/26 08:59:47;;;;;;;9.38;1.75;;;16.40;85.30;;;;;;5029127;28;20040;-74
2022/05/26 09:02:45;;;;;;;7.72;2.15;;;16.70;84.10;;;;;;5029351;28;20017;-73
2022/05/26 09:05:16;;;;;;;8.40;2.25;;;16.70;83.60;;;;;;5019963;28;20045;-72
2022/05/26 09:13:56;;;;;;;7.00;2.30;;;16.80;83.10;;;;;;5047419;28;20040;-76
2022/05/26 09:16:22;;;;;;;6.28;2.25;;;16.80;82.20;;;;;;5029796;28;20025;-76
2022/05/26 09:19:13;;;;;;;8.45;2.53;;;16.90;83.00;;;;;;5029312;28;20037;-80
2022/05/26 09:21:39;;;;;;;5.20;2.40;;;17.00;81.40;;;;;;5047148;28;20041;-72
2022/05/26 09:24:39;;;;;;;6.53;2.35;;;17.00;82.40;;;;;;5028844;28;20043;-76
2022/05/26 09:27:22;;;;;;;;;;;17.10;80.80;;;;;;5025241;28;20049;-74
2022/05/26 09:29:48;;;;;;;5.93;2.30;;;17.30;80.60;;;;;;5043324;28;19909;-72
2022/05/26 09:32:16;;;;;;;5.05;2.13;;;17.20;81.20;;;;;;5051422;28;20437;-74
2022/05/26 09:34:42;;;;;;;4.90;2.20;;;17.40;81.60;;;;;;5030785;28;20033;-73
2022/05/26 09:37:08;;;;;;;5.85;1.65;;;17.50;80.20;;;;;;5039531;28;20053;-75
2022/05/26 09:39:39;;;;;;;7.20;1.92;;;17.70;80.50;;;;;;5050799;28;20446;-74
2022/05/26 09:42:24;;;;;;;6.47;2.38;;;17.70;79.80;;;;;;5050626;28;20052;-75
2022/05/26 09:44:53;;;;;;;5.93;2.47;;;17.60;79.80;;;;;;5050407;28;20040;-74
2022/05/26 09:47:24;;;;;;;5.28;1.77;;;17.50;80.20;;;;;;5050256;28;20113;-70
2022/05/26 09:49:53;;;;;;;7.10;2.22;;;17.50;81.80;;;;;;5050407;28;20071;-72
2022/05/26 09:52:23;;;;;;;8.52;2.33;;;17.40;81.70;;;;;;5032595;28;20037;-74
2022/05/26 09:55:04;;;;;;;;;;;17.40;83.00;;;;;;5049989;28;20176;-74
2022/05/26 09:57:30;;;;;;;8.10;1.95;;;17.40;81.70;;;;;;5050803;28;20479;-77
2022/05/26 09:59:55;;;;;;;6.55;1.67;;;17.30;81.30;;;;;;5050010;28;20033;-74
2022/05/26 10:02:27;;;;;;;7.57;2.05;;;17.30;81.60;;;;;;5043521;28;20037;-74
2022/05/26 10:05:00;;;;;;;6.82;1.77;;;17.20;81.90;;;;;;5032134;28;20033;-74
2022/05/26 10:07:31;;;;;;;9.10;2.15;;;17.20;81.90;;;;;;5049704;28;20108;-76
2022/05/26 10:10:22;;;;;;;8.55;1.80;;;17.20;82.90;;;;;;5049560;28;20037;-72
2022/05/26 10:13:06;;;;;;;10.35;1.92;;;17.10;84.00;;;;;;5047070;28;20048;-77
2022/05/26 10:15:48;;;;;;;11.27;2.30;;;17.10;84.10;;;;;;5029910;28;20063;-72
2022/05/26 10:18:22;;;;;;;9.75;1.98;;;17.20;85.50;;;;;;5034894;28;20055;-78
2022/05/26 10:21:15;;;;;;;10.15;1.70;;;17.20;85.90;;;;;;5039212;28;20032;-74
2022/05/26 10:24:08;;;;;;;7.63;1.58;;;17.20;84.90;;;;;;5044277;28;20033;-75
2022/05/26 10:26:57;;;;;;;5.97;1.45;;;17.10;85.90;;;;;;5050280;28;20101;-74
2022/05/26 10:29:57;;;;;;;7.10;1.58;;;17.10;85.50;;;;;;5050143;28;20036;-77
2022/05/26 10:33:01;;;;;;;9.60;1.88;;;17.10;85.70;;;;;;5017563;28;20022;-72
2022/05/26 10:35:49;;;;;;;11.60;1.77;;;16.90;86.10;;;;;;4993983;28;20045;-71
2022/05/26 10:38:38;;;;;;;8.63;2.00;;;16.90;87.20;;;;;;5007442;28;20133;-72
2022/05/26 10:41:26;;;;;;;8.65;1.50;;;16.90;86.00;;;;;;5007518;28;20053;-71
2022/05/26 10:44:07;;;;;;;6.88;1.67;;;16.90;86.30;;;;;;4990628;28;20625;-71
2022/05/26 10:46:39;;;;;;;6.35;1.42;;;16.90;88.00;;;;;;5006813;28;20045;-75
2022/05/26 10:49:13;;;;;;;8.88;2.00;;;17.10;85.40;;;;;;4990193;28;20037;-71
2022/05/26 10:51:45;;;;;;;7.47;1.55;;;17.00;85.50;;;;;;5006534;28;20782;-71
2022/05/26 10:54:44;;;;;;;10.32;1.75;;;17.00;85.80;;;;;;4991400;28;20041;-72
2022/05/26 10:57:20;;;;;;;8.03;2.73;;;17.10;85.80;;;;;;4990560;28;20034;-71
2022/05/26 11:00:09;;;;;;;8.20;1.77;;;17.20;85.80;;;;;;5006717;28;20076;-72
2022/05/26 11:02:53;;;;;;;6.82;1.48;;;17.40;85.00;;;;;;5006898;28;20042;-73
2022/05/26 11:05:22;;;;;;;5.32;1.50;;;17.70;84.40;;;;;;4991318;28;20046;-71
2022/05/26 11:08:20;;;;;;;7.13;1.63;;;17.80;82.90;;;;;;5026210;28;20034;-76
2022/05/26 11:11:04;;;;;;;8.80;1.63;;;17.70;83.10;;;;;;5033175;28;20047;-72
2022/05/26 11:13:43;;;;;;;8.95;1.88;;;17.50;84.20;;;;;;5039670;28;20037;-80
2022/05/26 11:19:50;;;;;;;15.70;2.00;;;17.60;85.70;;;;;;5049105;28;20111;-70
2022/05/26 11:22:17;;;;;;;7.93;1.63;;;17.50;85.60;;;;;;5033220;28;20033;-73
2022/05/26 11:24:50;;;;;;;9.07;1.42;;;17.50;86.90;;;;;;5048411;28;20033;-73
2022/05/26 11:27:48;;;;;;;11.82;2.20;;;17.40;85.30;;;;;;5030283;28;20043;-71
2022/05/26 11:37:10;;;;;;;8.63;1.98;;;17.50;83.80;;;;;;5048452;28;20107;-73
2022/05/26 11:39:40;;;;;;;9.48;1.65;;;17.40;84.70;;;;;;5048413;28;20072;-70
2022/05/26 11:42:13;;;;;;;7.90;1.63;;;17.20;85.30;;;;;;5030305;28;20025;-70
2022/05/26 11:44:53;;;;;;;11.10;2.28;;;17.10;86.70;;;;;;5030439;28;20118;-69
2022/05/26 11:47:27;;;;;;;;;;;17.20;87.10;;;;;;5037807;28;20056;-72
2022/05/26 11:49:53;;;;;;;9.38;1.88;;;17.30;86.70;;;;;;5032802;28;19908;-71
2022/05/26 11:52:39;;;;;;;9.48;2.17;;;17.40;84.90;;;;;;5040665;28;20044;-70
2022/05/26 11:55:18;;;;;;;6.60;1.30;;;17.50;85.50;;;;;;5048158;28;20466;-72
2022/05/26 11:57:44;;;;;;;7.50;1.80;;;17.70;86.80;;;;;;5048117;28;20068;-74
2022/05/26 12:00:37;;;;;;;8.52;1.50;;;17.90;86.00;;;;;;5047980;28;20116;-71
2022/05/26 12:03:22;;;;;;;7.70;1.73;;;18.10;84.40;;;;;;5024633;28;20110;-74
2022/05/26 12:06:04;;;;;;;6.75;1.63;;;18.20;83.30;;;;;;5033901;28;20121;-72
2022/05/26 12:08:50;;;;;;;6.50;1.48;;;18.40;82.60;;;;;;5047984;28;20045;-74
2022/05/26 12:11:15;;;;;;;9.10;2.28;;;18.40;82.70;;;;;;5026854;28;20045;-72
2022/05/26 12:13:41;;;;;;;7.82;1.73;;;18.50;82.10;;;;;;5066817;28;20036;-74
2022/05/26 12:16:19;;;;;;;6.95;1.50;;;18.30;81.60;;;;;;5038312;28;20029;-74
2022/05/26 12:19:08;;;;;;;8.30;2.00;;;18.30;83.70;;;;;;5043947;28;20037;-71
2022/05/26 12:21:37;;;;;;;9.52;1.38;;;18.20;83.20;;;;;;5047398;28;20052;-75
2022/05/26 12:24:31;;;;;;;10.57;1.83;;;18.30;84.50;;;;;;5044629;28;20036;-74
2022/05/26 12:26:58;;;;;;;8.82;1.95;;;18.30;83.20;;;;;;5048053;28;20082;-72
2022/05/26 12:29:42;;;;;;;7.43;1.80;;;18.40;83.20;;;;;;5047540;28;20041;-73
2022/05/26 12:32:09;;;;;;;7.25;1.30;;;18.70;81.20;;;;;;5038980;28;20132;-70
2022/05/26 12:34:49;;;;;;;8.10;1.67;;;18.80;82.70;;;;;;5023566;28;20120;-73
2022/05/26 12:37:42;;;;;;;7.95;1.55;;;19.00;80.60;;;;;;5047260;28;20135;-73
2022/05/26 12:40:17;;;;;;;11.88;2.25;;;19.10;79.90;;;;;;5047686;28;20033;-74
2022/05/26 12:43:19;;;;;;;8.07;1.42;;;19.00;80.10;;;;;;5047785;28;20387;-76
2022/05/26 12:45:49;;;;;;;13.13;1.88;;;18.90;80.70;;;;;;5048323;28;20021;-71
2022/05/26 12:48:30;;;;;;;9.98;2.20;;;18.80;80.50;;;;;;5018263;28;20126;-86
2022/05/26 12:51:04;;;;;;;8.57;1.55;;;18.60;81.10;;;;;;5045562;28;20367;-73
2022/05/26 12:53:33;;;;;;;5.97;1.23;;;18.20;82.10;;;;;;5042956;28;20197;-73
2022/05/26 12:56:19;;;;;;;9.27;2.05;;;18.00;84.10;;;;;;5045955;28;20035;-70
2022/05/26 12:58:53;;;;;;;9.63;1.48;;;17.90;85.80;;;;;;5047658;28;20048;-71
2022/05/26 13:01:22;;;;;;;8.88;1.58;;;17.90;84.30;;;;;;5031767;28;20025;-73
2022/05/26 13:04:06;;;;;;;10.90;1.60;;;17.80;84.70;;;;;;5051369;28;20036;-71
2022/05/26 13:06:38;;;;;;;9.13;1.60;;;17.70;85.30;;;;;;5033060;28;20056;-70
2022/05/26 13:09:13;;;;;;;7.75;1.58;;;17.70;85.90;;;;;;5041607;28;20033;-69
2022/05/26 13:11:47;;;;;;;8.65;1.63;;;17.80;86.40;;;;;;5051177;28;20485;-72
2022/05/26 13:14:28;;;;;;;9.73;1.70;;;17.80;85.80;;;;;;5051757;28;20068;-69
2022/05/26 13:16:59;;;;;;;11.95;2.40;;;17.70;87.60;;;;;;5051384;28;20029;-72
2022/05/26 13:19:25;;;;;;;7.07;1.55;;;17.80;85.90;;;;;;5041569;28;20083;-71
2022/05/26 13:21:53;;;;;;;7.95;1.75;;;17.70;85.70;;;;;;5032856;28;20406;-74
2022/05/26 13:24:24;;;;;;;10.75;1.63;;;17.70;85.40;;;;;;5047841;28;20068;-74
2022/05/26 13:27:00;;;;;;;8.13;1.60;;;17.70;85.70;;;;;;5018051;28;20538;-70
2022/05/26 13:29:27;;;;;;;9.85;2.13;;;17.60;86.60;;;;;;5033131;28;20044;-73
2022/05/26 13:34:49;;;;;;;13.23;1.67;;;17.40;86.30;;;;;;5048120;28;20044;-73
2022/05/26 13:37:20;;;;;;;11.50;1.67;;;17.40;88.00;;;;;;5047748;28;20072;-72
2022/05/26 13:40:05;;;;;;;9.75;1.75;;;17.50;86.70;;;;;;5018033;28;20037;-71
2022/05/26 13:42:33;;;;;;;10.57;1.80;;;17.40;86.60;;;;;;5039854;28;20810;-72
2022/05/26 13:44:59;;;;;;;8.50;1.75;;;17.40;87.30;;;;;;5050321;28;20029;-72
2022/05/26 13:47:25;;;;;;;9.82;2.20;;;17.40;87.50;;;;;;5050577;28;20025;-72
2022/05/26 13:50:06;;;;;;;9.63;2.35;;;17.40;87.60;;;;;;5047529;28;20041;-74
2022/05/26 13:52:34;;;;;;;13.80;2.53;;;17.40;87.50;;;;;;5050595;28;20029;-70
2022/05/26 13:55:20;;;;;;;8.55;1.90;;;17.40;88.10;;;;;;5050143;28;20032;-74
2022/05/26 13:57:49;;;;;;;11.75;1.60;;;17.30;87.90;;;;;;5032743;28;20525;-73